Time;durP1;ratioP1;P1;durP2;ratioP2;P2;SDS_P1;SDS_P2;PMS_P1;PMS_P2;Temp;Humidity;BMP_temperature;BMP_pressure;BME280_temperature;BME280_humidity;BME280_pressure;Samples;Min_cycle;Max_cycle;Signal;HPM_P1;HPM_P2
2023/06/29 03:01:30;;;;;;;57.70;54.70;;;13.60;99.90;;;;;;5329010;23;20637;-85
2023/06/29 03:03:56;;;;;;;37.27;35.20;;;13.70;99.90;;;;;;4866051;29;20216;-85
2023/06/29 03:06:22;;;;;;;32.90;31.03;;;13.70;99.90;;;;;;4882632;29;20193;-86
2023/06/29 03:08:48;;;;;;;32.73;30.93;;;13.70;99.90;;;;;;4888286;29;20203;-83
2023/06/29 03:11:14;;;;;;;33.17;31.23;;;13.70;99.90;;;;;;4863785;29;20213;-84
2023/06/29 03:13:40;;;;;;;32.73;31.00;;;13.60;99.90;;;;;;4865278;29;20201;-84
2023/06/29 03:16:05;;;;;;;30.70;28.80;;;13.60;99.90;;;;;;4864701;29;20193;-84
2023/06/29 03:18:31;;;;;;;43.87;41.53;;;13.50;99.90;;;;;;4868838;29;20849;-84
2023/06/29 03:20:58;;;;;;;63.13;59.77;;;13.50;99.90;;;;;;4861136;29;20303;-84
2023/06/29 03:23:24;;;;;;;68.33;64.73;;;13.50;99.90;;;;;;4864007;29;20220;-84
2023/06/29 03:25:50;;;;;;;23.50;21.97;;;13.50;99.90;;;;;;4855781;29;20335;-84
2023/06/29 03:28:15;;;;;;;34.67;32.50;;;13.50;99.90;;;;;;4858842;29;20196;-84
2023/06/29 03:30:41;;;;;;;15.80;14.97;;;13.50;99.90;;;;;;4858959;29;20252;-84
2023/06/29 03:33:07;;;;;;;15.17;14.17;;;13.50;99.90;;;;;;4869069;29;20200;-82
2023/06/29 03:35:32;;;;;;;18.10;16.73;;;13.50;99.90;;;;;;4867674;29;20177;-83
2023/06/29 03:37:58;;;;;;;32.73;31.00;;;13.50;99.90;;;;;;4865306;29;20300;-83
2023/06/29 03:40:24;;;;;;;82.07;77.47;;;13.40;99.90;;;;;;4861498;29;20286;-84
2023/06/29 03:42:50;;;;;;;38.20;35.97;;;13.50;99.90;;;;;;4858570;29;20287;-85
2023/06/29 03:45:16;;;;;;;79.27;75.20;;;13.40;99.90;;;;;;4847317;29;20365;-84
2023/06/29 03:47:42;;;;;;;79.20;74.83;;;13.50;99.90;;;;;;4854439;29;20189;-84
2023/06/29 03:50:08;;;;;;;36.33;34.23;;;13.50;99.90;;;;;;4871464;29;20248;-86
2023/06/29 03:52:34;;;;;;;16.30;15.20;;;13.50;99.90;;;;;;4873428;29;20184;-83
2023/06/29 03:55:00;;;;;;;16.73;15.57;;;13.50;99.90;;;;;;4852221;29;20201;-81
2023/06/29 03:57:27;;;;;;;16.77;15.77;;;13.50;99.90;;;;;;4855188;29;20866;-84
2023/06/29 03:59:53;;;;;;;15.63;14.73;;;13.50;99.90;;;;;;4851572;29;20197;-84
2023/06/29 04:02:19;;;;;;;17.70;16.13;;;13.50;99.90;;;;;;4851725;29;20221;-83
2023/06/29 04:04:45;;;;;;;33.43;31.60;;;13.50;99.90;;;;;;4867310;29;20209;-66
2023/06/29 04:07:11;;;;;;;53.50;50.63;;;13.50;99.90;;;;;;4858959;29;20348;-65
2023/06/29 04:09:37;;;;;;;76.97;72.77;;;13.50;99.90;;;;;;4859529;29;20201;-66
2023/06/29 04:12:03;;;;;;;23.93;22.43;;;13.50;99.90;;;;;;4858666;29;20215;-65
2023/06/29 04:14:28;;;;;;;37.13;35.13;;;13.50;99.90;;;;;;4859231;29;20206;-66
2023/06/29 04:16:54;;;;;;;23.20;21.67;;;13.60;99.90;;;;;;4858975;29;20204;-65
2023/06/29 04:19:20;;;;;;;25.90;24.50;;;13.70;99.90;;;;;;4858246;29;20640;-65
2023/06/29 04:21:46;;;;;;;26.90;25.20;;;13.80;99.90;;;;;;4842837;29;20610;-64
2023/06/29 04:24:11;;;;;;;33.63;31.63;;;13.90;99.90;;;;;;4859106;29;20212;-65
2023/06/29 04:26:38;;;;;;;39.63;37.40;;;14.00;99.90;;;;;;4859350;29;20669;-66
2023/06/29 04:29:06;;;;;;;54.77;52.00;;;14.00;99.90;;;;;;4842240;29;20192;-65
2023/06/29 04:31:32;;;;;;;80.40;76.10;;;14.10;99.90;;;;;;4842569;29;20649;-66
2023/06/29 04:33:58;;;;;;;114.70;108.50;;;14.20;99.90;;;;;;4842438;29;20195;-65
2023/06/29 04:36:25;;;;;;;186.43;176.20;;;14.40;99.90;;;;;;4859226;29;20193;-66
2023/06/29 04:38:51;;;;;;;231.07;218.47;;;14.50;99.90;;;;;;4858513;29;20334;-65
2023/06/29 04:41:16;;;;;;;212.30;201.30;;;14.60;99.90;;;;;;4860750;29;20697;-66
2023/06/29 04:43:43;;;;;;;188.73;178.47;;;14.70;99.90;;;;;;4855331;29;20181;-66
2023/06/29 04:46:09;;;;;;;103.17;97.77;;;14.90;99.90;;;;;;4859661;29;20193;-66
2023/06/29 04:48:37;;;;;;;77.10;73.07;;;14.90;99.90;;;;;;4861784;29;20181;-65
2023/06/29 04:51:07;;;;;;;25.30;23.90;;;14.90;99.90;;;;;;4860677;29;20315;-65
2023/06/29 04:53:34;;;;;;;25.20;23.70;;;15.00;99.90;;;;;;4858454;29;20571;-65
2023/06/29 04:56:03;;;;;;;15.97;14.97;;;15.10;99.90;;;;;;4858697;29;20196;-65
2023/06/29 04:58:29;;;;;;;20.50;19.03;;;15.20;99.90;;;;;;4858105;29;20234;-65
2023/06/29 05:00:55;;;;;;;41.87;39.50;;;15.40;99.90;;;;;;4866888;29;20288;-65
2023/06/29 05:03:21;;;;;;;135.30;128.13;;;15.60;99.90;;;;;;4853140;29;20314;-65
2023/06/29 05:05:47;;;;;;;148.43;140.60;;;15.70;99.90;;;;;;4857938;29;20225;-65
2023/06/29 05:08:13;;;;;;;43.87;41.23;;;16.00;99.90;;;;;;4857918;29;20689;-66
2023/06/29 05:10:39;;;;;;;90.87;86.10;;;16.50;99.90;;;;;;4862985;29;20212;-65
2023/06/29 05:13:05;;;;;;;9.73;9.00;;;17.00;99.90;;;;;;4860090;29;20193;-66
2023/06/29 05:15:31;;;;;;;26.73;25.23;;;17.40;99.90;;;;;;4858248;29;20287;-66
2023/06/29 05:17:56;;;;;;;20.08;18.58;;;17.90;99.90;;;;;;4857767;29;20219;-64
2023/06/29 05:20:22;;;;;;;37.20;35.03;;;18.70;99.90;;;;;;4857622;29;20643;-65
2023/06/29 05:22:48;;;;;;;26.10;24.63;;;19.40;99.90;;;;;;4858223;29;20681;-65
2023/06/29 05:25:14;;;;;;;24.35;22.65;;;19.90;99.90;;;;;;4858049;29;20252;-64
2023/06/29 05:27:41;;;;;;;12.38;11.52;;;20.40;99.90;;;;;;4858902;29;20193;-65
2023/06/29 05:30:10;;;;;;;14.10;13.30;;;21.00;99.90;;;;;;4860817;29;20224;-64
2023/06/29 05:32:36;;;;;;;9.95;9.35;;;21.30;99.90;;;;;;4858329;29;20291;-70
2023/06/29 05:35:02;;;;;;;7.03;6.43;;;21.80;99.90;;;;;;4858224;29;20264;-66
2023/06/29 05:37:29;;;;;;;10.63;9.98;;;21.90;99.90;;;;;;4857990;29;20677;-65
2023/06/29 05:39:56;;;;;;;12.95;12.25;;;21.80;99.90;;;;;;4858414;29;20197;-65
2023/06/29 05:42:25;;;;;;;12.93;12.15;;;21.90;99.90;;;;;;4858131;29;20340;-65
2023/06/29 05:44:52;;;;;;;9.23;8.55;;;22.40;99.90;;;;;;4857810;29;20224;-65
2023/06/29 05:47:18;;;;;;;10.13;9.27;;;22.90;99.90;;;;;;4857809;29;20186;-66
2023/06/29 05:49:45;;;;;;;13.52;12.57;;;23.40;99.90;;;;;;4857390;29;20237;-65
2023/06/29 05:52:11;;;;;;;17.30;16.30;;;23.70;99.90;;;;;;4862099;29;20219;-64
2023/06/29 05:54:38;;;;;;;11.35;10.32;;;23.00;99.90;;;;;;4858363;29;20224;-65
2023/06/29 05:57:04;;;;;;;10.50;9.77;;;22.70;99.90;;;;;;4857721;29;20639;-65
2023/06/29 05:59:30;;;;;;;13.13;12.32;;;23.10;99.90;;;;;;4857914;29;20197;-67
2023/06/29 06:01:56;;;;;;;13.95;13.05;;;23.40;99.90;;;;;;4858142;29;20255;-66
2023/06/29 06:04:22;;;;;;;15.00;14.23;;;23.90;99.90;;;;;;4857661;29;20220;-66
2023/06/29 06:06:47;;;;;;;12.45;11.75;;;24.00;99.50;;;;;;4858195;29;20193;-65
2023/06/29 06:09:13;;;;;;;12.75;12.05;;;24.00;99.10;;;;;;4857842;29;20201;-65
2023/06/29 06:11:39;;;;;;;13.23;12.38;;;23.50;99.80;;;;;;4857786;29;20205;-65
2023/06/29 06:14:05;;;;;;;19.38;18.13;;;24.00;99.30;;;;;;4857539;29;20202;-66
2023/06/29 06:16:30;;;;;;;18.77;17.73;;;24.60;97.70;;;;;;4841292;29;20573;-66
2023/06/29 06:18:56;;;;;;;26.70;25.00;;;24.70;97.40;;;;;;4857123;29;20200;-66
2023/06/29 06:21:23;;;;;;;15.30;14.32;;;25.30;96.20;;;;;;4857830;29;20622;-66
2023/06/29 06:23:51;;;;;;;9.10;8.40;;;25.70;94.90;;;;;;4857684;29;20243;-65
2023/06/29 06:26:16;;;;;;;6.78;6.35;;;26.00;93.60;;;;;;4857424;29;20220;-66
2023/06/29 06:28:42;;;;;;;15.02;13.88;;;26.00;93.20;;;;;;4857322;29;20648;-66
2023/06/29 06:31:08;;;;;;;20.65;19.48;;;26.20;92.00;;;;;;4857600;29;20217;-65
2023/06/29 06:33:34;;;;;;;35.42;33.50;;;26.10;91.60;;;;;;4857348;29;20197;-65
2023/06/29 06:36:00;;;;;;;44.53;42.33;;;26.30;91.20;;;;;;4860025;29;20197;-66
2023/06/29 06:38:26;;;;;;;59.45;56.17;;;26.50;90.80;;;;;;4871967;29;20204;-68
2023/06/29 06:40:51;;;;;;;55.92;53.13;;;27.00;88.20;;;;;;4872209;29;20226;-66
2023/06/29 06:43:17;;;;;;;23.67;22.35;;;27.50;87.70;;;;;;4869486;29;20201;-66
2023/06/29 06:45:44;;;;;;;11.77;11.15;;;27.30;84.70;;;;;;4865026;29;20280;-66
2023/06/29 06:48:10;;;;;;;20.67;19.58;;;26.70;85.40;;;;;;4860136;29;20228;-66
2023/06/29 06:50:35;;;;;;;44.40;41.78;;;26.20;86.30;;;;;;4860661;29;20255;-66
2023/06/29 06:53:01;;;;;;;38.25;36.08;;;26.20;86.90;;;;;;4860620;29;20196;-67
2023/06/29 06:55:27;;;;;;;20.77;19.38;;;26.60;85.80;;;;;;4860441;29;20193;-67
2023/06/29 06:57:53;;;;;;;41.20;39.00;;;26.10;85.70;;;;;;4860335;29;20222;-66
2023/06/29 07:00:19;;;;;;;16.60;15.73;;;26.40;87.10;;;;;;4860199;29;20200;-66
2023/06/29 07:02:45;;;;;;;9.50;7.95;;;26.80;84.60;;;;;;4860303;29;20654;-65
2023/06/29 07:05:11;;;;;;;5.65;4.75;;;27.60;83.00;;;;;;4860311;29;20232;-66
2023/06/29 07:07:37;;;;;;;5.68;5.30;;;27.50;82.90;;;;;;4860030;29;20571;-66
2023/06/29 07:10:04;;;;;;;6.05;5.68;;;28.10;80.30;;;;;;4860128;29;20649;-65
2023/06/29 07:12:30;;;;;;;8.02;5.50;;;28.30;78.70;;;;;;4843541;29;20213;-66
2023/06/29 07:14:55;;;;;;;6.30;5.82;;;28.30;78.30;;;;;;4860343;29;20654;-65
2023/06/29 07:17:21;;;;;;;5.53;5.05;;;28.10;78.30;;;;;;4862535;29;20624;-66
2023/06/29 07:19:47;;;;;;;6.43;5.63;;;27.70;78.10;;;;;;4863871;29;20224;-66
2023/06/29 07:22:12;;;;;;;5.43;5.03;;;28.10;78.10;;;;;;4861812;29;20265;-83
2023/06/29 07:24:39;;;;;;;5.47;4.95;;;28.40;77.00;;;;;;4879268;29;20213;-81
2023/06/29 07:27:05;;;;;;;5.57;5.07;;;27.80;77.80;;;;;;4865507;29;20209;-83
2023/06/29 07:29:30;;;;;;;4.55;4.30;;;28.10;77.90;;;;;;4854656;29;20193;-83
2023/06/29 07:31:56;;;;;;;4.80;4.28;;;28.70;76.00;;;;;;4861592;29;20213;-83
2023/06/29 07:34:25;;;;;;;4.22;3.92;;;29.40;74.70;;;;;;4854401;29;20287;-83
2023/06/29 07:36:51;;;;;;;4.82;4.45;;;29.90;73.40;;;;;;4853879;29;20649;-83
2023/06/29 07:39:17;;;;;;;8.35;7.55;;;30.20;71.90;;;;;;4852758;29;20205;-82
2023/06/29 07:41:43;;;;;;;9.57;9.10;;;29.60;72.90;;;;;;4868577;29;20273;-82
2023/06/29 07:44:09;;;;;;;5.57;5.25;;;29.50;72.90;;;;;;4851514;29;20213;-83
2023/06/29 07:46:35;;;;;;;6.75;6.45;;;28.70;74.60;;;;;;4867945;29;20197;-83
2023/06/29 07:49:01;;;;;;;8.57;7.80;;;29.30;74.00;;;;;;4867935;29;20219;-83
2023/06/29 07:51:32;;;;;;;9.48;8.88;;;30.10;72.00;;;;;;4853494;29;20236;-83
2023/06/29 07:54:00;;;;;;;13.68;12.80;;;30.50;71.10;;;;;;4862590;29;20553;-84
2023/06/29 07:56:27;;;;;;;20.52;19.27;;;31.00;68.40;;;;;;4860739;29;20336;-83
2023/06/29 07:58:53;;;;;;;10.18;9.57;;;30.80;67.80;;;;;;4884914;29;20271;-83
2023/06/29 08:01:19;;;;;;;7.47;6.97;;;30.70;67.40;;;;;;4881935;29;20225;-83
2023/06/29 08:03:45;;;;;;;7.43;6.93;;;31.00;66.50;;;;;;4860157;29;20201;-84
2023/06/29 08:06:11;;;;;;;7.30;6.95;;;31.10;66.90;;;;;;4872095;29;20197;-84
2023/06/29 08:08:37;;;;;;;7.05;6.65;;;31.20;65.10;;;;;;4872494;29;20200;-83
2023/06/29 08:11:03;;;;;;;7.65;7.15;;;30.70;65.50;;;;;;4857153;29;20284;-84
2023/06/29 08:13:29;;;;;;;8.18;7.63;;;30.20;63.50;;;;;;4856090;29;20650;-83
2023/06/29 08:15:54;;;;;;;7.97;7.40;;;30.10;64.60;;;;;;4867628;29;20207;-84
2023/06/29 08:18:20;;;;;;;7.22;4.70;;;30.90;63.80;;;;;;4860526;29;20276;-83
2023/06/29 08:20:46;;;;;;;6.45;5.75;;;31.20;61.30;;;;;;4864558;29;20217;-84
2023/06/29 08:23:13;;;;;;;5.28;4.38;;;31.20;61.80;;;;;;4867050;29;20251;-84
2023/06/29 08:25:39;;;;;;;4.30;3.90;;;31.50;61.80;;;;;;4859446;29;20268;-82
2023/06/29 08:28:04;;;;;;;3.78;3.47;;;31.80;62.00;;;;;;4863550;29;20197;-82
2023/06/29 08:30:30;;;;;;;8.57;8.07;;;31.30;61.00;;;;;;4878761;29;20209;-83
2023/06/29 08:32:56;;;;;;;15.23;14.32;;;30.10;63.10;;;;;;4853476;29;20197;-83
2023/06/29 08:35:22;;;;;;;16.25;15.27;;;29.50;64.60;;;;;;4852939;29;20189;-83
2023/06/29 08:37:47;;;;;;;16.38;14.98;;;29.60;65.30;;;;;;4868403;29;20200;-83
2023/06/29 08:40:18;;;;;;;11.60;10.90;;;30.00;63.70;;;;;;4851686;29;20222;-83
2023/06/29 08:42:44;;;;;;;8.52;8.13;;;30.80;64.10;;;;;;4858042;29;20244;-83
2023/06/29 08:45:09;;;;;;;7.15;4.63;;;31.60;62.40;;;;;;4869281;29;20757;-82
2023/06/29 08:47:38;;;;;;;8.05;4.40;;;32.30;59.20;;;;;;4855486;29;20201;-83
2023/06/29 08:50:07;;;;;;;6.53;6.22;;;32.80;58.10;;;;;;4857109;29;20200;-83
2023/06/29 08:52:34;;;;;;;6.57;6.18;;;32.50;57.80;;;;;;4854062;29;20707;-83
2023/06/29 08:55:01;;;;;;;13.35;6.05;;;32.10;58.50;;;;;;4878004;29;20547;-84
2023/06/29 08:57:29;;;;;;;7.50;6.78;;;31.70;58.30;;;;;;4867974;29;20201;-84
2023/06/29 08:59:55;;;;;;;5.88;5.47;;;31.60;57.30;;;;;;4852358;29;20209;-83
2023/06/29 09:02:21;;;;;;;9.23;8.77;;;31.60;57.70;;;;;;4851390;29;20243;-83
2023/06/29 09:04:47;;;;;;;14.07;13.20;;;31.80;55.70;;;;;;4867212;29;20288;-83
2023/06/29 09:07:14;;;;;;;9.10;8.32;;;31.20;55.60;;;;;;4867361;29;20266;-83
2023/06/29 09:09:40;;;;;;;7.15;5.45;;;30.70;56.80;;;;;;4857646;29;20196;-82
2023/06/29 09:12:06;;;;;;;5.78;5.28;;;30.80;57.70;;;;;;4882875;29;20201;-83
2023/06/29 09:14:35;;;;;;;4.85;4.40;;;31.20;57.40;;;;;;4886719;23;20232;-77
2023/06/29 09:17:02;;;;;;;5.90;5.47;;;30.50;57.70;;;;;;4876526;29;20274;-76
2023/06/29 09:19:29;;;;;;;4.32;4.05;;;30.40;59.80;;;;;;4875843;29;20196;-76
2023/06/29 09:21:58;;;;;;;4.95;4.35;;;31.00;58.10;;;;;;4877089;29;20234;-77
2023/06/29 09:24:27;;;;;;;3.97;3.67;;;31.30;57.60;;;;;;4880680;29;20706;-77
2023/06/29 09:26:54;;;;;;;8.75;5.72;;;31.80;57.60;;;;;;4895499;29;20202;-77
2023/06/29 09:29:20;;;;;;;17.05;16.13;;;32.50;55.30;;;;;;4895537;29;20668;-77
2023/06/29 09:31:58;;;;;;;36.10;34.25;;;33.30;54.80;;;;;;4894567;29;20727;-78
2023/06/29 09:34:26;;;;;;;4.90;4.65;;;34.10;54.00;;;;;;4894279;29;20305;-77
2023/06/29 09:36:52;;;;;;;4.25;3.92;;;33.90;51.90;;;;;;4895263;29;20192;-77
2023/06/29 09:39:19;;;;;;;4.80;4.40;;;34.00;51.60;;;;;;4896352;29;20286;-76
2023/06/29 09:41:53;;;;;;;21.10;19.75;;;32.80;52.10;;;;;;4907011;29;20199;-77
2023/06/29 09:44:22;;;;;;;30.52;28.98;;;31.40;54.20;;;;;;4896282;29;20355;-78
2023/06/29 09:46:53;;;;;;;31.17;29.60;;;30.80;55.50;;;;;;4895717;29;20187;-76
2023/06/29 09:49:19;;;;;;;27.80;26.42;;;31.50;54.30;;;;;;4894301;29;20202;-76
2023/06/29 09:51:48;;;;;;;21.50;20.30;;;32.30;53.90;;;;;;4895536;29;20196;-76
2023/06/29 09:54:18;;;;;;;18.10;17.30;;;32.20;53.30;;;;;;4894209;29;20222;-76
2023/06/29 09:56:47;;;;;;;13.82;13.05;;;32.40;53.10;;;;;;4895740;29;20191;-76
2023/06/29 09:59:13;;;;;;;8.57;7.97;;;32.30;53.60;;;;;;4895329;29;20227;-76
2023/06/29 10:01:40;;;;;;;5.07;4.78;;;32.70;52.50;;;;;;4894542;29;20196;-75
2023/06/29 10:04:06;;;;;;;6.72;6.25;;;32.80;52.30;;;;;;4896457;29;20219;-75
2023/06/29 10:06:41;;;;;;;8.05;7.45;;;32.30;52.60;;;;;;4895981;29;20685;-77
2023/06/29 10:09:08;;;;;;;7.43;4.25;;;32.60;52.50;;;;;;4895097;29;20223;-76
2023/06/29 10:11:36;;;;;;;4.70;4.50;;;33.00;51.80;;;;;;4899202;29;20196;-77
2023/06/29 10:14:07;;;;;;;10.70;9.98;;;33.80;51.70;;;;;;4899144;29;20223;-76
2023/06/29 10:16:40;;;;;;;55.42;52.63;;;34.80;50.80;;;;;;4899124;29;20224;-76
2023/06/29 10:19:25;;;;;;;92.13;87.72;;;34.90;50.10;;;;;;4898529;29;20254;-76
2023/06/29 10:21:59;;;;;;;72.70;69.10;;;34.80;49.40;;;;;;4897845;29;20370;-76
2023/06/29 10:24:32;;;;;;;54.60;51.70;;;35.30;48.90;;;;;;4897803;29;20230;-77
2023/06/29 10:26:58;;;;;;;17.45;16.55;;;35.70;48.30;;;;;;4897458;29;20292;-76
2023/06/29 10:29:25;;;;;;;21.13;19.95;;;35.40;47.70;;;;;;4895362;29;20188;-76
2023/06/29 10:31:57;;;;;;;7.70;7.22;;;35.60;47.50;;;;;;4894790;29;20187;-76
2023/06/29 10:34:26;;;;;;;3.35;3.20;;;35.70;47.30;;;;;;4898627;29;20570;-76
2023/06/29 10:36:54;;;;;;;4.20;4.00;;;35.30;47.50;;;;;;4898387;29;20192;-77
2023/06/29 10:39:38;;;;;;;5.68;5.20;;;34.90;48.10;;;;;;4898356;29;20210;-76
2023/06/29 10:42:38;;;;;;;8.35;7.95;;;35.00;48.00;;;;;;4898640;29;20226;-77
2023/06/29 10:45:20;;;;;;;4.88;4.50;;;35.10;47.70;;;;;;4898083;29;20223;-76
2023/06/29 10:48:07;;;;;;;4.75;4.38;;;35.20;46.70;;;;;;4891868;29;20252;-76
2023/06/29 10:50:46;;;;;;;3.38;3.10;;;35.20;46.40;;;;;;4892101;29;20199;-76
2023/06/29 10:53:17;;;;;;;6.72;6.22;;;35.70;45.80;;;;;;4898496;29;20192;-76
2023/06/29 10:55:54;;;;;;;18.58;17.50;;;34.50;47.30;;;;;;4898413;29;20238;-76
2023/06/29 10:58:37;;;;;;;32.88;31.20;;;34.20;47.90;;;;;;4897875;29;20199;-76
2023/06/29 11:01:02;;;;;;;125.22;119.32;;;33.90;48.20;;;;;;4897946;29;20196;-76
2023/06/29 11:03:29;;;;;;;93.57;89.07;;;33.50;49.80;;;;;;4898067;29;20286;-76
2023/06/29 11:05:57;;;;;;;101.88;96.53;;;33.30;49.80;;;;;;4896704;29;20223;-76
2023/06/29 11:08:23;;;;;;;99.55;94.78;;;33.40;50.90;;;;;;4897474;29;20678;-77
2023/06/29 11:10:50;;;;;;;39.47;37.25;;;32.90;49.40;;;;;;4898160;29;20725;-76
2023/06/29 11:13:18;;;;;;;11.82;10.90;;;32.60;51.20;;;;;;4896751;29;20198;-76
2023/06/29 11:15:50;;;;;;;5.82;5.53;;;32.50;51.50;;;;;;4902379;29;20231;-77
2023/06/29 11:18:16;;;;;;;9.15;8.60;;;32.40;51.40;;;;;;4904486;29;20604;-77
2023/06/29 11:20:42;;;;;;;66.55;63.25;;;33.30;50.10;;;;;;4897837;29;20192;-77
2023/06/29 11:23:07;;;;;;;100.38;95.13;;;34.40;48.90;;;;;;4896528;29;20199;-77
2023/06/29 11:25:36;;;;;;;18.80;17.65;;;35.50;49.50;;;;;;4896346;29;20215;-77
2023/06/29 11:28:03;;;;;;;3.92;3.67;;;36.20;46.00;;;;;;4896296;29;20270;-77
2023/06/29 11:30:29;;;;;;;4.57;4.10;;;36.30;45.80;;;;;;4912326;29;20196;-76
2023/06/29 11:32:55;;;;;;;9.32;8.63;;;36.10;46.00;;;;;;4896467;29;20680;-77
2023/06/29 11:35:22;;;;;;;4.78;4.38;;;36.40;45.80;;;;;;4897541;29;20211;-76
2023/06/29 11:37:56;;;;;;;8.48;7.97;;;35.40;45.90;;;;;;4897327;29;20544;-77
2023/06/29 11:40:23;;;;;;;5.43;5.03;;;34.70;46.70;;;;;;4896429;29;20203;-77
2023/06/29 11:42:50;;;;;;;28.55;26.90;;;34.10;47.80;;;;;;4896348;29;20620;-78
2023/06/29 11:45:20;;;;;;;27.38;25.92;;;34.30;49.00;;;;;;4897176;29;20226;-76
2023/06/29 11:47:51;;;;;;;6.80;6.32;;;34.60;48.10;;;;;;4897002;29;20191;-77
2023/06/29 11:50:18;;;;;;;8.80;8.07;;;36.10;46.00;;;;;;4897305;29;20196;-77
2023/06/29 11:52:44;;;;;;;13.15;12.35;;;37.40;45.00;;;;;;4897397;29;20299;-77
2023/06/29 11:55:15;;;;;;;7.60;7.00;;;38.20;43.30;;;;;;4897293;29;20219;-77
2023/06/29 11:57:52;;;;;;;7.85;7.22;;;38.50;43.20;;;;;;4897053;29;20196;-77
2023/06/29 12:00:18;;;;;;;6.30;5.72;;;38.70;42.10;;;;;;4896968;29;20652;-77
2023/06/29 12:02:44;;;;;;;5.90;5.35;;;38.70;41.70;;;;;;4897240;29;20203;-77
2023/06/29 12:05:10;;;;;;;4.85;4.45;;;39.10;42.50;;;;;;4896725;29;20242;-77
2023/06/29 12:07:37;;;;;;;5.13;4.40;;;38.90;41.80;;;;;;4896498;29;20219;-77
2023/06/29 12:10:05;;;;;;;7.03;6.40;;;39.00;41.60;;;;;;4897135;29;20202;-77
2023/06/29 12:12:59;;;;;;;6.50;6.03;;;38.90;40.50;;;;;;4897076;29;20266;-77
2023/06/29 12:15:27;;;;;;;4.57;4.18;;;39.30;40.90;;;;;;4895497;29;20653;-77
2023/06/29 12:18:06;;;;;;;4.68;4.32;;;39.70;39.80;;;;;;4896530;29;20211;-76
2023/06/29 12:20:41;;;;;;;6.43;5.22;;;39.60;39.80;;;;;;4896849;29;20239;-76
2023/06/29 12:23:08;;;;;;;6.60;6.05;;;39.30;40.80;;;;;;4895452;29;20246;-76
2023/06/29 12:25:45;;;;;;;6.28;5.72;;;38.90;40.60;;;;;;4895521;29;20211;-77
2023/06/29 12:28:11;;;;;;;6.18;5.70;;;38.70;40.60;;;;;;4896403;29;20198;-76
2023/06/29 12:30:37;;;;;;;5.78;5.38;;;38.70;40.40;;;;;;4896626;29;20616;-77
2023/06/29 12:33:03;;;;;;;7.40;6.82;;;38.30;41.30;;;;;;4894724;29;20192;-77
2023/06/29 12:35:29;;;;;;;10.95;9.88;;;37.80;41.10;;;;;;4896298;29;20286;-77
2023/06/29 12:37:55;;;;;;;9.25;8.43;;;37.00;41.70;;;;;;4894811;29;20196;-76
2023/06/29 12:40:21;;;;;;;7.15;6.65;;;36.20;43.30;;;;;;4896313;29;20195;-77
2023/06/29 12:42:46;;;;;;;9.95;9.25;;;35.60;43.80;;;;;;4896969;29;20196;-76
2023/06/29 12:45:12;;;;;;;7.43;6.85;;;35.00;44.80;;;;;;4894952;29;20219;-77
2023/06/29 12:47:39;;;;;;;5.82;5.28;;;34.50;45.60;;;;;;4896022;29;20255;-76
2023/06/29 12:50:05;;;;;;;5.97;5.18;;;33.80;47.10;;;;;;4895009;29;20203;-77
2023/06/29 12:52:31;;;;;;;6.15;5.22;;;33.70;46.60;;;;;;4911502;29;20188;-76
2023/06/29 12:54:57;;;;;;;6.88;5.75;;;34.00;46.80;;;;;;4896660;29;20207;-77
2023/06/29 12:57:26;;;;;;;5.38;4.72;;;34.70;46.70;;;;;;4894721;29;20266;-76
2023/06/29 12:59:56;;;;;;;6.60;5.40;;;35.40;45.60;;;;;;4895987;29;20202;-77
2023/06/29 13:02:23;;;;;;;5.68;5.18;;;35.90;44.60;;;;;;4896069;29;20195;-77
2023/06/29 13:04:49;;;;;;;6.70;5.80;;;35.90;44.30;;;;;;4895600;29;20601;-77
2023/06/29 13:07:17;;;;;;;6.50;5.90;;;35.90;44.40;;;;;;4895464;29;20656;-77
2023/06/29 13:09:44;;;;;;;6.22;5.72;;;35.10;45.40;;;;;;4895864;29;20683;-76
2023/06/29 13:12:14;;;;;;;6.95;6.25;;;34.30;46.50;;;;;;4895779;29;20199;-76
2023/06/29 13:14:44;;;;;;;9.27;6.50;;;34.50;46.70;;;;;;4895742;29;20238;-76
2023/06/29 13:17:10;;;;;;;6.13;5.53;;;34.60;46.30;;;;;;4895461;29;20681;-76
2023/06/29 13:19:39;;;;;;;7.40;6.68;;;34.60;46.60;;;;;;4895558;29;20191;-76
2023/06/29 13:22:05;;;;;;;9.25;8.55;;;34.30;46.50;;;;;;4894448;29;20206;-76
2023/06/29 13:24:33;;;;;;;11.00;9.90;;;34.20;46.60;;;;;;4895816;29;20497;-77
2023/06/29 13:27:00;;;;;;;40.88;38.50;;;34.10;47.00;;;;;;4895615;29;20213;-77
2023/06/29 13:29:26;;;;;;;75.47;71.55;;;33.80;48.20;;;;;;4895703;29;20183;-76
2023/06/29 13:31:51;;;;;;;107.35;101.82;;;33.10;48.70;;;;;;4894693;29;20595;-75
2023/06/29 13:34:17;;;;;;;62.63;59.08;;;32.50;49.10;;;;;;4895526;29;20223;-78
2023/06/29 13:36:43;;;;;;;36.55;34.38;;;32.20;50.10;;;;;;4895941;29;20514;-78
2023/06/29 13:39:09;;;;;;;27.02;25.52;;;32.20;50.30;;;;;;4887546;29;20641;-78
2023/06/29 13:41:40;;;;;;;18.05;16.70;;;32.10;50.10;;;;;;4895818;29;20197;-77
2023/06/29 13:44:07;;;;;;;10.30;9.63;;;32.10;51.60;;;;;;4896842;29;20219;-78
2023/06/29 13:46:34;;;;;;;37.60;35.33;;;31.60;52.80;;;;;;4899484;29;20192;-78
2023/06/29 13:49:01;;;;;;;92.70;88.13;;;31.30;53.60;;;;;;4899187;29;20246;-77
2023/06/29 13:51:31;;;;;;;108.18;102.78;;;30.90;54.40;;;;;;4899590;29;20278;-77
2023/06/29 13:53:57;;;;;;;93.80;88.88;;;30.80;54.80;;;;;;4899511;29;20211;-78
2023/06/29 13:56:24;;;;;;;100.97;95.88;;;30.90;54.60;;;;;;4899421;29;20251;-78
2023/06/29 13:58:53;;;;;;;85.95;81.25;;;31.50;54.20;;;;;;4899033;29;20571;-78
2023/06/29 14:01:20;;;;;;;87.32;83.03;;;31.70;53.40;;;;;;4897964;29;20255;-77
2023/06/29 14:03:46;;;;;;;96.35;91.28;;;31.20;54.00;;;;;;4898066;29;20192;-78
2023/06/29 14:06:12;;;;;;;100.35;95.47;;;31.10;54.10;;;;;;4898974;29;20560;-77
2023/06/29 14:08:39;;;;;;;102.47;97.13;;;30.90;54.40;;;;;;4898834;29;20235;-77
2023/06/29 14:11:05;;;;;;;77.35;73.30;;;30.80;54.30;;;;;;4899310;29;20188;-77
2023/06/29 14:13:31;;;;;;;71.30;67.70;;;30.80;54.90;;;;;;4899106;29;20252;-78
2023/06/29 14:15:58;;;;;;;70.45;66.78;;;30.90;55.00;;;;;;4897824;29;20207;-78
2023/06/29 14:18:27;;;;;;;50.92;48.13;;;30.90;54.90;;;;;;4897696;29;20310;-77
2023/06/29 14:20:52;;;;;;;43.78;41.30;;;30.80;55.20;;;;;;4899345;29;20674;-78
2023/06/29 14:23:20;;;;;;;27.48;25.77;;;30.50;55.00;;;;;;4899337;29;20294;-78
2023/06/29 14:25:46;;;;;;;16.45;15.45;;;30.30;55.90;;;;;;4902033;29;20211;-77
2023/06/29 14:28:11;;;;;;;12.35;10.95;;;30.00;55.80;;;;;;4910450;29;20187;-78
2023/06/29 14:30:37;;;;;;;8.90;8.27;;;30.00;56.10;;;;;;4924549;29;20208;-78
2023/06/29 14:33:03;;;;;;;31.08;29.17;;;30.50;56.60;;;;;;4897969;29;20223;-78
2023/06/29 14:35:29;;;;;;;87.50;82.85;;;31.80;54.70;;;;;;4898640;29;20270;-78
2023/06/29 14:37:55;;;;;;;12.85;11.95;;;33.00;52.90;;;;;;4898441;29;20206;-78
2023/06/29 14:40:21;;;;;;;9.23;8.55;;;33.60;51.50;;;;;;4890982;29;20607;-78
2023/06/29 14:42:47;;;;;;;11.68;10.68;;;33.90;50.70;;;;;;4898607;29;20192;-78
2023/06/29 14:45:13;;;;;;;17.55;16.33;;;34.00;51.00;;;;;;4898292;29;20221;-77
2023/06/29 14:47:38;;;;;;;23.77;22.33;;;33.50;50.90;;;;;;4896991;29;20188;-78
2023/06/29 14:50:05;;;;;;;11.57;10.70;;;33.40;51.10;;;;;;4898354;29;20258;-76
2023/06/29 14:52:31;;;;;;;10.23;9.15;;;33.00;51.90;;;;;;4898593;29;20211;-76
2023/06/29 14:54:57;;;;;;;8.85;8.18;;;32.80;52.30;;;;;;4898267;29;20216;-76
2023/06/29 14:57:23;;;;;;;11.85;11.07;;;32.70;52.30;;;;;;4897621;29;20202;-77
2023/06/29 14:59:49;;;;;;;11.52;10.68;;;32.30;53.10;;;;;;4898251;29;20187;-75
2023/06/29 15:02:15;;;;;;;14.63;13.43;;;32.40;52.90;;;;;;4898323;29;20192;-76
2023/06/29 15:04:41;;;;;;;8.23;7.38;;;32.80;52.70;;;;;;4896792;29;20215;-75
2023/06/29 15:07:07;;;;;;;14.02;12.98;;;33.50;51.80;;;;;;4897818;29;20201;-76
2023/06/29 15:09:33;;;;;;;10.63;9.93;;;33.30;51.50;;;;;;4897957;29;20569;-75
2023/06/29 15:12:01;;;;;;;11.98;10.88;;;32.60;52.60;;;;;;4897860;29;20215;-75
2023/06/29 15:14:31;;;;;;;40.55;38.42;;;32.00;53.40;;;;;;4911915;24;20236;-82
2023/06/29 15:16:57;;;;;;;136.38;129.48;;;31.50;54.40;;;;;;4888789;29;20479;-82
2023/06/29 15:19:22;;;;;;;109.93;104.47;;;31.10;56.40;;;;;;4892702;29;20189;-84
2023/06/29 15:21:49;;;;;;;77.38;73.25;;;30.80;56.10;;;;;;4888763;29;20614;-83
2023/06/29 15:24:15;;;;;;;27.73;26.00;;;30.60;56.10;;;;;;4885363;29;20271;-82
2023/06/29 15:26:41;;;;;;;10.10;9.23;;;30.10;56.60;;;;;;4876612;29;20237;-71
2023/06/29 15:29:07;;;;;;;10.45;9.18;;;29.90;57.60;;;;;;4878216;29;20192;-72
2023/06/29 15:31:32;;;;;;;8.40;6.28;;;29.80;57.70;;;;;;4877029;29;20645;-71
2023/06/29 15:33:58;;;;;;;7.97;6.88;;;29.90;58.00;;;;;;4871093;29;20196;-70
2023/06/29 15:36:24;;;;;;;7.22;6.68;;;30.00;57.40;;;;;;4895151;29;20192;-71